sensor_id;sensor_type;location;lat;lon;timestamp;P1;durP1;ratioP1;P2;durP2;ratioP2
23148;SDS011;11743;51.228;22.498;2022-10-17T00:00:16;12.70;;;8.98;;
23148;SDS011;11743;51.228;22.498;2022-10-17T00:00:41;11.57;;;8.35;;
23148;SDS011;11743;51.228;22.498;2022-10-17T00:01:06;11.35;;;8.60;;
23148;SDS011;11743;51.228;22.498;2022-10-17T00:01:32;13.80;;;8.40;;
23148;SDS011;11743;51.228;22.498;2022-10-17T00:01:58;12.85;;;8.57;;
23148;SDS011;11743;51.228;22.498;2022-10-17T00:02:20;13.68;;;8.30;;
23148;SDS011;11743;51.228;22.498;2022-10-17T00:02:45;12.60;;;8.40;;
23148;SDS011;11743;51.228;22.498;2022-10-17T00:03:10;12.80;;;8.88;;
23148;SDS011;11743;51.228;22.498;2022-10-17T00:05:20;13.32;;;9.35;;
23148;SDS011;11743;51.228;22.498;2022-10-17T00:05:43;14.25;;;8.95;;
23148;SDS011;11743;51.228;22.498;2022-10-17T00:06:10;13.88;;;8.73;;
23148;SDS011;11743;51.228;22.498;2022-10-17T00:06:35;11.77;;;8.98;;
23148;SDS011;11743;51.228;22.498;2022-10-17T00:07:01;13.13;;;9.10;;
23148;SDS011;11743;51.228;22.498;2022-10-17T00:07:22;13.65;;;9.10;;
23148;SDS011;11743;51.228;22.498;2022-10-17T00:09:50;12.77;;;8.90;;
23148;SDS011;11743;51.228;22.498;2022-10-17T00:10:12;11.60;;;8.57;;
23148;SDS011;11743;51.228;22.498;2022-10-17T00:11:22;12.70;;;8.88;;
23148;SDS011;11743;51.228;22.498;2022-10-17T00:11:45;12.90;;;8.70;;
23148;SDS011;11743;51.228;22.498;2022-10-17T00:12:07;11.27;;;8.52;;
23148;SDS011;11743;51.228;22.498;2022-10-17T00:12:39;13.38;;;9.20;;
23148;SDS011;11743;51.228;22.498;2022-10-17T00:13:05;13.15;;;9.18;;
23148;SDS011;11743;51.228;22.498;2022-10-17T00:13:32;12.30;;;9.00;;
23148;SDS011;11743;51.228;22.498;2022-10-17T00:13:54;12.73;;;9.27;;
23148;SDS011;11743;51.228;22.498;2022-10-17T00:14:20;13.60;;;9.43;;
23148;SDS011;11743;51.228;22.498;2022-10-17T00:14:42;12.23;;;9.00;;
23148;SDS011;11743;51.228;22.498;2022-10-17T00:15:05;14.63;;;9.45;;
23148;SDS011;11743;51.228;22.498;2022-10-17T00:15:27;13.05;;;9.30;;
23148;SDS011;11743;51.228;22.498;2022-10-17T00:15:50;12.00;;;8.82;;
23148;SDS011;11743;51.228;22.498;2022-10-17T00:16:13;13.38;;;8.82;;
23148;SDS011;11743;51.228;22.498;2022-10-17T00:17:19;12.75;;;8.90;;
23148;SDS011;11743;51.228;22.498;2022-10-17T00:17:44;12.70;;;8.75;;
23148;SDS011;11743;51.228;22.498;2022-10-17T00:18:06;14.45;;;9.05;;
23148;SDS011;11743;51.228;22.498;2022-10-17T00:18:28;12.70;;;8.32;;
23148;SDS011;11743;51.228;22.498;2022-10-17T00:18:50;11.18;;;8.52;;
23148;SDS011;11743;51.228;22.498;2022-10-17T00:19:12;11.82;;;8.85;;
23148;SDS011;11743;51.228;22.498;2022-10-17T00:19:34;11.20;;;8.75;;
23148;SDS011;11743;51.228;22.498;2022-10-17T00:19:59;12.95;;;9.02;;
23148;SDS011;11743;51.228;22.498;2022-10-17T00:20:22;13.55;;;9.02;;
23148;SDS011;11743;51.228;22.498;2022-10-17T00:20:49;11.43;;;8.65;;
23148;SDS011;11743;51.228;22.498;2022-10-17T00:21:16;13.43;;;9.00;;
23148;SDS011;11743;51.228;22.498;2022-10-17T00:21:40;12.13;;;8.70;;
23148;SDS011;11743;51.228;22.498;2022-10-17T00:22:03;13.63;;;8.57;;
23148;SDS011;11743;51.228;22.498;2022-10-17T00:22:26;14.32;;;8.77;;
23148;SDS011;11743;51.228;22.498;2022-10-17T00:22:56;14.02;;;8.80;;
23148;SDS011;11743;51.228;22.498;2022-10-17T00:23:18;14.73;;;9.13;;
23148;SDS011;11743;51.228;22.498;2022-10-17T00:23:40;14.07;;;9.23;;
23148;SDS011;11743;51.228;22.498;2022-10-17T00:24:05;14.02;;;9.13;;
23148;SDS011;11743;51.228;22.498;2022-10-17T00:24:30;13.48;;;9.10;;
23148;SDS011;11743;51.228;22.498;2022-10-17T00:25:07;15.52;;;9.43;;
23148;SDS011;11743;51.228;22.498;2022-10-17T00:25:31;16.13;;;8.95;;
23148;SDS011;11743;51.228;22.498;2022-10-17T00:26:08;12.80;;;8.95;;
23148;SDS011;11743;51.228;22.498;2022-10-17T00:26:33;13.15;;;9.15;;
23148;SDS011;11743;51.228;22.498;2022-10-17T00:26:55;15.45;;;9.15;;
23148;SDS011;11743;51.228;22.498;2022-10-17T00:27:19;14.25;;;9.02;;
23148;SDS011;11743;51.228;22.498;2022-10-17T00:27:41;12.45;;;9.07;;
23148;SDS011;11743;51.228;22.498;2022-10-17T00:28:12;12.88;;;8.35;;
23148;SDS011;11743;51.228;22.498;2022-10-17T00:28:41;11.15;;;8.60;;
23148;SDS011;11743;51.228;22.498;2022-10-17T00:29:10;13.32;;;8.77;;
23148;SDS011;11743;51.228;22.498;2022-10-17T00:29:35;12.07;;;8.60;;
23148;SDS011;11743;51.228;22.498;2022-10-17T00:30:10;12.65;;;8.95;;
23148;SDS011;11743;51.228;22.498;2022-10-17T00:30:39;12.60;;;9.13;;
23148;SDS011;11743;51.228;22.498;2022-10-17T00:31:04;12.63;;;9.05;;
23148;SDS011;11743;51.228;22.498;2022-10-17T00:31:27;12.50;;;9.00;;
23148;SDS011;11743;51.228;22.498;2022-10-17T00:31:49;11.70;;;8.57;;
23148;SDS011;11743;51.228;22.498;2022-10-17T00:32:15;12.70;;;8.82;;
23148;SDS011;11743;51.228;22.498;2022-10-17T00:32:40;12.13;;;8.68;;
23148;SDS011;11743;51.228;22.498;2022-10-17T00:33:04;14.15;;;8.52;;
23148;SDS011;11743;51.228;22.498;2022-10-17T00:33:27;13.65;;;8.75;;
23148;SDS011;11743;51.228;22.498;2022-10-17T00:33:52;14.65;;;8.93;;
23148;SDS011;11743;51.228;22.498;2022-10-17T00:34:17;14.38;;;9.55;;
23148;SDS011;11743;51.228;22.498;2022-10-17T00:34:41;13.30;;;9.18;;
23148;SDS011;11743;51.228;22.498;2022-10-17T00:35:02;14.50;;;9.00;;
23148;SDS011;11743;51.228;22.498;2022-10-17T00:35:25;13.63;;;9.32;;
23148;SDS011;11743;51.228;22.498;2022-10-17T00:35:47;13.00;;;9.23;;
23148;SDS011;11743;51.228;22.498;2022-10-17T00:36:21;14.43;;;9.23;;
23148;SDS011;11743;51.228;22.498;2022-10-17T00:36:48;12.25;;;8.75;;
23148;SDS011;11743;51.228;22.498;2022-10-17T00:37:13;11.45;;;8.93;;
23148;SDS011;11743;51.228;22.498;2022-10-17T00:37:35;11.90;;;8.90;;
23148;SDS011;11743;51.228;22.498;2022-10-17T00:37:58;13.40;;;8.98;;
23148;SDS011;11743;51.228;22.498;2022-10-17T00:38:20;13.25;;;9.20;;
23148;SDS011;11743;51.228;22.498;2022-10-17T00:38:50;13.95;;;9.23;;
23148;SDS011;11743;51.228;22.498;2022-10-17T00:39:16;14.25;;;9.20;;
23148;SDS011;11743;51.228;22.498;2022-10-17T00:39:38;13.38;;;9.00;;
23148;SDS011;11743;51.228;22.498;2022-10-17T00:40:00;12.85;;;9.27;;
23148;SDS011;11743;51.228;22.498;2022-10-17T00:40:23;12.52;;;8.95;;
23148;SDS011;11743;51.228;22.498;2022-10-17T00:40:45;12.77;;;9.00;;
23148;SDS011;11743;51.228;22.498;2022-10-17T00:41:08;13.13;;;8.88;;
23148;SDS011;11743;51.228;22.498;2022-10-17T00:41:32;13.48;;;8.98;;
23148;SDS011;11743;51.228;22.498;2022-10-17T00:41:57;11.57;;;8.77;;
23148;SDS011;11743;51.228;22.498;2022-10-17T00:42:19;13.23;;;9.20;;
23148;SDS011;11743;51.228;22.498;2022-10-17T00:42:42;12.95;;;9.00;;
23148;SDS011;11743;51.228;22.498;2022-10-17T00:43:05;13.23;;;9.35;;
23148;SDS011;11743;51.228;22.498;2022-10-17T00:44:58;13.60;;;9.27;;
23148;SDS011;11743;51.228;22.498;2022-10-17T00:45:22;14.82;;;9.40;;
23148;SDS011;11743;51.228;22.498;2022-10-17T00:45:48;12.00;;;9.45;;
23148;SDS011;11743;51.228;22.498;2022-10-17T00:46:15;13.02;;;8.95;;
23148;SDS011;11743;51.228;22.498;2022-10-17T00:46:37;14.00;;;9.27;;
23148;SDS011;11743;51.228;22.498;2022-10-17T00:47:01;14.98;;;9.60;;
23148;SDS011;11743;51.228;22.498;2022-10-17T00:47:31;14.07;;;9.50;;
23148;SDS011;11743;51.228;22.498;2022-10-17T00:48:00;12.38;;;9.38;;
23148;SDS011;11743;51.228;22.498;2022-10-17T00:48:25;12.32;;;9.32;;
23148;SDS011;11743;51.228;22.498;2022-10-17T00:48:52;13.45;;;9.20;;
23148;SDS011;11743;51.228;22.498;2022-10-17T00:49:15;12.88;;;8.85;;
23148;SDS011;11743;51.228;22.498;2022-10-17T00:49:42;16.15;;;9.30;;
23148;SDS011;11743;51.228;22.498;2022-10-17T00:50:05;13.80;;;10.00;;
23148;SDS011;11743;51.228;22.498;2022-10-17T00:50:28;12.60;;;9.13;;
23148;SDS011;11743;51.228;22.498;2022-10-17T00:50:51;12.32;;;8.93;;
23148;SDS011;11743;51.228;22.498;2022-10-17T00:51:23;12.68;;;9.40;;
23148;SDS011;11743;51.228;22.498;2022-10-17T00:51:52;13.73;;;9.40;;
23148;SDS011;11743;51.228;22.498;2022-10-17T00:52:20;11.30;;;8.65;;
23148;SDS011;11743;51.228;22.498;2022-10-17T00:52:51;14.32;;;9.25;;
23148;SDS011;11743;51.228;22.498;2022-10-17T00:53:16;12.80;;;9.43;;
23148;SDS011;11743;51.228;22.498;2022-10-17T00:53:39;13.13;;;9.13;;
23148;SDS011;11743;51.228;22.498;2022-10-17T00:54:04;13.05;;;9.35;;
23148;SDS011;11743;51.228;22.498;2022-10-17T00:54:30;14.77;;;9.85;;
23148;SDS011;11743;51.228;22.498;2022-10-17T00:55:02;12.10;;;8.93;;
23148;SDS011;11743;51.228;22.498;2022-10-17T00:55:32;12.45;;;9.30;;
23148;SDS011;11743;51.228;22.498;2022-10-17T00:56:06;12.73;;;9.18;;
23148;SDS011;11743;51.228;22.498;2022-10-17T00:56:34;15.90;;;10.27;;
23148;SDS011;11743;51.228;22.498;2022-10-17T00:56:57;12.88;;;9.75;;
23148;SDS011;11743;51.228;22.498;2022-10-17T00:57:19;15.40;;;10.73;;
23148;SDS011;11743;51.228;22.498;2022-10-17T00:57:51;15.90;;;10.88;;
23148;SDS011;11743;51.228;22.498;2022-10-17T00:58:14;13.45;;;9.88;;
23148;SDS011;11743;51.228;22.498;2022-10-17T00:58:40;15.02;;;10.70;;
23148;SDS011;11743;51.228;22.498;2022-10-17T00:59:02;17.00;;;11.95;;
23148;SDS011;11743;51.228;22.498;2022-10-17T00:59:27;17.27;;;11.50;;
23148;SDS011;11743;51.228;22.498;2022-10-17T00:59:53;16.48;;;10.48;;
23148;SDS011;11743;51.228;22.498;2022-10-17T01:00:18;14.05;;;9.85;;
23148;SDS011;11743;51.228;22.498;2022-10-17T01:00:44;13.38;;;9.40;;
23148;SDS011;11743;51.228;22.498;2022-10-17T01:01:08;13.73;;;9.88;;
23148;SDS011;11743;51.228;22.498;2022-10-17T01:01:32;16.17;;;10.25;;
23148;SDS011;11743;51.228;22.498;2022-10-17T01:02:48;12.70;;;9.10;;
23148;SDS011;11743;51.228;22.498;2022-10-17T01:03:10;12.75;;;9.27;;
23148;SDS011;11743;51.228;22.498;2022-10-17T01:03:32;14.32;;;9.63;;
23148;SDS011;11743;51.228;22.498;2022-10-17T01:03:57;13.43;;;9.70;;
23148;SDS011;11743;51.228;22.498;2022-10-17T01:04:39;11.95;;;9.18;;
23148;SDS011;11743;51.228;22.498;2022-10-17T01:05:04;12.65;;;9.65;;
23148;SDS011;11743;51.228;22.498;2022-10-17T01:05:27;16.38;;;9.75;;
23148;SDS011;11743;51.228;22.498;2022-10-17T01:05:49;15.90;;;9.65;;
23148;SDS011;11743;51.228;22.498;2022-10-17T01:06:11;16.23;;;9.90;;
23148;SDS011;11743;51.228;22.498;2022-10-17T01:06:33;15.45;;;9.68;;
23148;SDS011;11743;51.228;22.498;2022-10-17T01:06:55;12.60;;;9.20;;
23148;SDS011;11743;51.228;22.498;2022-10-17T01:07:17;13.75;;;9.80;;
23148;SDS011;11743;51.228;22.498;2022-10-17T01:07:39;14.85;;;9.55;;
23148;SDS011;11743;51.228;22.498;2022-10-17T01:08:03;14.25;;;9.38;;
23148;SDS011;11743;51.228;22.498;2022-10-17T01:08:27;14.57;;;9.65;;
23148;SDS011;11743;51.228;22.498;2022-10-17T01:08:52;13.93;;;9.32;;
23148;SDS011;11743;51.228;22.498;2022-10-17T01:09:15;13.20;;;9.35;;
23148;SDS011;11743;51.228;22.498;2022-10-17T01:09:37;14.95;;;9.65;;
23148;SDS011;11743;51.228;22.498;2022-10-17T01:10:03;15.75;;;9.98;;
23148;SDS011;11743;51.228;22.498;2022-10-17T01:10:29;14.75;;;9.20;;
23148;SDS011;11743;51.228;22.498;2022-10-17T01:11:49;16.45;;;9.35;;
23148;SDS011;11743;51.228;22.498;2022-10-17T01:12:31;13.55;;;9.32;;
23148;SDS011;11743;51.228;22.498;2022-10-17T01:14:08;13.10;;;9.43;;
23148;SDS011;11743;51.228;22.498;2022-10-17T01:18:56;14.88;;;9.30;;
23148;SDS011;11743;51.228;22.498;2022-10-17T01:19:36;12.90;;;10.15;;
23148;SDS011;11743;51.228;22.498;2022-10-17T01:21:37;16.35;;;9.93;;
23148;SDS011;11743;51.228;22.498;2022-10-17T01:24:46;14.45;;;9.63;;
23148;SDS011;11743;51.228;22.498;2022-10-17T01:27:56;15.07;;;9.95;;
23148;SDS011;11743;51.228;22.498;2022-10-17T01:30:12;13.65;;;10.25;;
23148;SDS011;11743;51.228;22.498;2022-10-17T01:31:15;16.92;;;9.90;;
23148;SDS011;11743;51.228;22.498;2022-10-17T01:31:50;15.55;;;9.75;;
23148;SDS011;11743;51.228;22.498;2022-10-17T01:32:24;15.75;;;9.65;;
23148;SDS011;11743;51.228;22.498;2022-10-17T01:32:54;12.80;;;9.45;;
23148;SDS011;11743;51.228;22.498;2022-10-17T01:33:52;13.52;;;9.35;;
23148;SDS011;11743;51.228;22.498;2022-10-17T01:34:19;15.13;;;9.40;;
23148;SDS011;11743;51.228;22.498;2022-10-17T01:34:54;15.13;;;9.60;;
23148;SDS011;11743;51.228;22.498;2022-10-17T01:36:18;13.60;;;9.52;;
23148;SDS011;11743;51.228;22.498;2022-10-17T01:36:58;14.90;;;9.15;;
23148;SDS011;11743;51.228;22.498;2022-10-17T01:37:32;14.75;;;9.30;;
23148;SDS011;11743;51.228;22.498;2022-10-17T01:38:08;15.30;;;9.45;;
23148;SDS011;11743;51.228;22.498;2022-10-17T01:38:46;13.90;;;9.10;;
23148;SDS011;11743;51.228;22.498;2022-10-17T01:40:11;14.30;;;9.10;;
23148;SDS011;11743;51.228;22.498;2022-10-17T01:40:47;14.05;;;9.52;;
23148;SDS011;11743;51.228;22.498;2022-10-17T01:41:16;14.73;;;8.95;;
23148;SDS011;11743;51.228;22.498;2022-10-17T01:42:25;15.05;;;9.70;;
23148;SDS011;11743;51.228;22.498;2022-10-17T01:44:06;12.73;;;9.68;;
23148;SDS011;11743;51.228;22.498;2022-10-17T01:46:21;14.65;;;9.00;;
23148;SDS011;11743;51.228;22.498;2022-10-17T01:47:07;12.82;;;9.32;;
23148;SDS011;11743;51.228;22.498;2022-10-17T01:47:34;13.23;;;9.10;;
23148;SDS011;11743;51.228;22.498;2022-10-17T01:47:57;14.27;;;9.13;;
23148;SDS011;11743;51.228;22.498;2022-10-17T01:48:24;11.93;;;9.18;;
23148;SDS011;11743;51.228;22.498;2022-10-17T01:48:53;11.80;;;9.02;;
23148;SDS011;11743;51.228;22.498;2022-10-17T01:49:21;13.98;;;8.98;;
23148;SDS011;11743;51.228;22.498;2022-10-17T01:49:48;15.13;;;9.40;;
23148;SDS011;11743;51.228;22.498;2022-10-17T01:50:14;14.55;;;9.40;;
23148;SDS011;11743;51.228;22.498;2022-10-17T01:50:52;14.05;;;9.38;;
23148;SDS011;11743;51.228;22.498;2022-10-17T01:51:22;14.02;;;9.32;;
23148;SDS011;11743;51.228;22.498;2022-10-17T01:52:14;12.77;;;9.05;;
23148;SDS011;11743;51.228;22.498;2022-10-17T01:53:05;13.25;;;9.10;;
23148;SDS011;11743;51.228;22.498;2022-10-17T01:54:13;12.57;;;8.93;;
23148;SDS011;11743;51.228;22.498;2022-10-17T01:55:41;12.75;;;8.73;;
23148;SDS011;11743;51.228;22.498;2022-10-17T01:56:06;15.07;;;9.40;;
23148;SDS011;11743;51.228;22.498;2022-10-17T01:56:31;13.82;;;9.10;;
23148;SDS011;11743;51.228;22.498;2022-10-17T01:56:57;14.60;;;9.75;;
23148;SDS011;11743;51.228;22.498;2022-10-17T01:58:20;12.45;;;9.10;;
23148;SDS011;11743;51.228;22.498;2022-10-17T01:58:55;13.63;;;9.02;;
23148;SDS011;11743;51.228;22.498;2022-10-17T01:59:22;13.55;;;9.32;;
23148;SDS011;11743;51.228;22.498;2022-10-17T01:59:50;13.98;;;9.27;;
23148;SDS011;11743;51.228;22.498;2022-10-17T02:00:18;12.38;;;9.05;;
23148;SDS011;11743;51.228;22.498;2022-10-17T02:00:47;14.32;;;9.40;;
23148;SDS011;11743;51.228;22.498;2022-10-17T02:01:10;14.60;;;9.70;;
23148;SDS011;11743;51.228;22.498;2022-10-17T02:01:36;15.77;;;9.32;;
23148;SDS011;11743;51.228;22.498;2022-10-17T02:02:03;18.90;;;9.27;;
23148;SDS011;11743;51.228;22.498;2022-10-17T02:02:33;12.93;;;9.48;;
23148;SDS011;11743;51.228;22.498;2022-10-17T02:02:59;14.65;;;9.45;;
23148;SDS011;11743;51.228;22.498;2022-10-17T02:03:25;12.93;;;9.00;;
23148;SDS011;11743;51.228;22.498;2022-10-17T02:03:52;13.35;;;9.40;;
23148;SDS011;11743;51.228;22.498;2022-10-17T02:04:19;12.50;;;9.43;;
23148;SDS011;11743;51.228;22.498;2022-10-17T02:04:42;12.35;;;8.80;;
23148;SDS011;11743;51.228;22.498;2022-10-17T02:05:05;13.68;;;9.38;;
23148;SDS011;11743;51.228;22.498;2022-10-17T02:05:32;13.82;;;9.48;;
23148;SDS011;11743;51.228;22.498;2022-10-17T02:05:58;14.43;;;9.48;;
23148;SDS011;11743;51.228;22.498;2022-10-17T02:06:21;13.18;;;8.73;;
23148;SDS011;11743;51.228;22.498;2022-10-17T02:06:43;12.07;;;8.93;;
23148;SDS011;11743;51.228;22.498;2022-10-17T02:07:08;14.18;;;9.73;;
23148;SDS011;11743;51.228;22.498;2022-10-17T02:07:33;15.40;;;9.85;;
23148;SDS011;11743;51.228;22.498;2022-10-17T02:07:55;14.75;;;9.60;;
23148;SDS011;11743;51.228;22.498;2022-10-17T02:08:25;14.07;;;9.05;;
23148;SDS011;11743;51.228;22.498;2022-10-17T02:08:49;13.15;;;9.80;;
23148;SDS011;11743;51.228;22.498;2022-10-17T02:09:23;12.80;;;9.52;;
23148;SDS011;11743;51.228;22.498;2022-10-17T02:09:47;13.55;;;9.45;;
23148;SDS011;11743;51.228;22.498;2022-10-17T02:10:15;12.90;;;9.45;;
23148;SDS011;11743;51.228;22.498;2022-10-17T02:11:04;14.82;;;9.45;;
23148;SDS011;11743;51.228;22.498;2022-10-17T02:11:35;13.95;;;9.30;;
23148;SDS011;11743;51.228;22.498;2022-10-17T02:12:59;14.25;;;9.73;;
23148;SDS011;11743;51.228;22.498;2022-10-17T02:13:37;13.73;;;9.55;;
23148;SDS011;11743;51.228;22.498;2022-10-17T02:16:07;13.82;;;9.77;;
23148;SDS011;11743;51.228;22.498;2022-10-17T02:18:06;14.02;;;10.02;;
23148;SDS011;11743;51.228;22.498;2022-10-17T02:18:51;12.65;;;9.15;;
23148;SDS011;11743;51.228;22.498;2022-10-17T02:25:32;12.27;;;9.80;;
23148;SDS011;11743;51.228;22.498;2022-10-17T02:26:35;14.48;;;10.13;;
23148;SDS011;11743;51.228;22.498;2022-10-17T02:29:24;13.43;;;10.10;;
23148;SDS011;11743;51.228;22.498;2022-10-17T02:29:58;15.18;;;10.07;;
23148;SDS011;11743;51.228;22.498;2022-10-17T02:31:36;17.05;;;10.18;;
23148;SDS011;11743;51.228;22.498;2022-10-17T02:32:04;14.68;;;10.20;;
23148;SDS011;11743;51.228;22.498;2022-10-17T02:33:18;12.55;;;9.43;;
23148;SDS011;11743;51.228;22.498;2022-10-17T02:34:01;15.18;;;10.13;;
23148;SDS011;11743;51.228;22.498;2022-10-17T02:35:07;15.23;;;9.90;;
23148;SDS011;11743;51.228;22.498;2022-10-17T02:35:37;16.25;;;10.32;;
23148;SDS011;11743;51.228;22.498;2022-10-17T02:36:04;13.38;;;9.75;;
23148;SDS011;11743;51.228;22.498;2022-10-17T02:36:35;13.35;;;9.88;;
23148;SDS011;11743;51.228;22.498;2022-10-17T02:37:04;17.13;;;10.40;;
23148;SDS011;11743;51.228;22.498;2022-10-17T02:37:31;15.07;;;9.80;;
23148;SDS011;11743;51.228;22.498;2022-10-17T02:37:59;13.88;;;10.00;;
23148;SDS011;11743;51.228;22.498;2022-10-17T02:38:24;18.33;;;10.45;;
23148;SDS011;11743;51.228;22.498;2022-10-17T02:38:50;18.00;;;10.15;;
23148;SDS011;11743;51.228;22.498;2022-10-17T02:39:19;14.40;;;10.13;;
23148;SDS011;11743;51.228;22.498;2022-10-17T02:39:44;13.57;;;10.50;;
23148;SDS011;11743;51.228;22.498;2022-10-17T02:40:10;13.98;;;10.07;;
23148;SDS011;11743;51.228;22.498;2022-10-17T02:40:34;12.45;;;9.82;;
23148;SDS011;11743;51.228;22.498;2022-10-17T02:40:58;15.20;;;10.50;;
23148;SDS011;11743;51.228;22.498;2022-10-17T02:41:21;13.52;;;10.02;;
23148;SDS011;11743;51.228;22.498;2022-10-17T02:41:45;13.70;;;10.02;;
23148;SDS011;11743;51.228;22.498;2022-10-17T02:42:09;14.55;;;10.05;;
23148;SDS011;11743;51.228;22.498;2022-10-17T02:42:32;14.52;;;10.00;;
23148;SDS011;11743;51.228;22.498;2022-10-17T02:42:58;13.32;;;9.77;;
23148;SDS011;11743;51.228;22.498;2022-10-17T02:43:22;13.07;;;9.80;;
23148;SDS011;11743;51.228;22.498;2022-10-17T02:43:52;14.23;;;9.60;;
23148;SDS011;11743;51.228;22.498;2022-10-17T02:44:21;14.02;;;10.02;;
23148;SDS011;11743;51.228;22.498;2022-10-17T02:44:45;14.27;;;9.98;;
23148;SDS011;11743;51.228;22.498;2022-10-17T02:45:08;13.48;;;9.98;;
23148;SDS011;11743;51.228;22.498;2022-10-17T02:45:32;13.82;;;9.52;;
23148;SDS011;11743;51.228;22.498;2022-10-17T02:45:58;13.82;;;9.48;;
23148;SDS011;11743;51.228;22.498;2022-10-17T02:46:21;13.82;;;10.00;;
23148;SDS011;11743;51.228;22.498;2022-10-17T02:46:51;14.60;;;10.32;;
23148;SDS011;11743;51.228;22.498;2022-10-17T02:47:38;15.65;;;10.30;;
23148;SDS011;11743;51.228;22.498;2022-10-17T02:48:21;14.05;;;9.93;;
23148;SDS011;11743;51.228;22.498;2022-10-17T02:48:57;13.27;;;9.75;;
23148;SDS011;11743;51.228;22.498;2022-10-17T02:49:22;15.52;;;10.10;;
23148;SDS011;11743;51.228;22.498;2022-10-17T02:49:54;14.13;;;9.57;;
23148;SDS011;11743;51.228;22.498;2022-10-17T02:50:19;14.55;;;9.90;;
23148;SDS011;11743;51.228;22.498;2022-10-17T02:51:14;13.77;;;9.80;;
23148;SDS011;11743;51.228;22.498;2022-10-17T02:52:27;12.05;;;9.88;;
23148;SDS011;11743;51.228;22.498;2022-10-17T02:53:21;16.52;;;9.65;;
23148;SDS011;11743;51.228;22.498;2022-10-17T02:55:42;14.32;;;10.10;;
23148;SDS011;11743;51.228;22.498;2022-10-17T02:56:13;16.17;;;10.35;;
23148;SDS011;11743;51.228;22.498;2022-10-17T02:56:47;14.32;;;9.70;;
23148;SDS011;11743;51.228;22.498;2022-10-17T02:57:58;14.57;;;9.80;;
23148;SDS011;11743;51.228;22.498;2022-10-17T02:58:29;13.07;;;10.00;;
23148;SDS011;11743;51.228;22.498;2022-10-17T02:58:56;13.65;;;10.05;;
23148;SDS011;11743;51.228;22.498;2022-10-17T02:59:21;14.85;;;10.10;;
23148;SDS011;11743;51.228;22.498;2022-10-17T02:59:47;13.10;;;10.10;;
23148;SDS011;11743;51.228;22.498;2022-10-17T03:00:11;13.70;;;9.90;;
23148;SDS011;11743;51.228;22.498;2022-10-17T03:00:38;14.43;;;10.00;;
23148;SDS011;11743;51.228;22.498;2022-10-17T03:01:04;15.05;;;9.95;;
23148;SDS011;11743;51.228;22.498;2022-10-17T03:01:27;14.23;;;10.18;;
23148;SDS011;11743;51.228;22.498;2022-10-17T03:01:51;15.25;;;10.27;;
23148;SDS011;11743;51.228;22.498;2022-10-17T03:02:25;13.60;;;10.02;;
23148;SDS011;11743;51.228;22.498;2022-10-17T03:02:51;14.95;;;9.80;;
23148;SDS011;11743;51.228;22.498;2022-10-17T03:03:17;15.48;;;10.18;;
23148;SDS011;11743;51.228;22.498;2022-10-17T03:03:46;16.55;;;10.30;;
23148;SDS011;11743;51.228;22.498;2022-10-17T03:04:09;14.43;;;10.20;;
23148;SDS011;11743;51.228;22.498;2022-10-17T03:04:36;13.25;;;9.98;;
23148;SDS011;11743;51.228;22.498;2022-10-17T03:05:12;13.48;;;10.23;;
23148;SDS011;11743;51.228;22.498;2022-10-17T03:05:35;15.13;;;10.10;;
23148;SDS011;11743;51.228;22.498;2022-10-17T03:06:00;14.27;;;10.60;;
23148;SDS011;11743;51.228;22.498;2022-10-17T03:06:22;14.48;;;10.20;;
23148;SDS011;11743;51.228;22.498;2022-10-17T03:06:45;13.82;;;10.18;;
23148;SDS011;11743;51.228;22.498;2022-10-17T03:07:08;14.70;;;9.82;;
23148;SDS011;11743;51.228;22.498;2022-10-17T03:07:30;14.88;;;9.98;;
23148;SDS011;11743;51.228;22.498;2022-10-17T03:07:54;14.93;;;10.25;;
23148;SDS011;11743;51.228;22.498;2022-10-17T03:08:18;16.73;;;10.50;;
23148;SDS011;11743;51.228;22.498;2022-10-17T03:08:41;13.98;;;10.15;;
23148;SDS011;11743;51.228;22.498;2022-10-17T03:09:03;12.52;;;9.60;;
23148;SDS011;11743;51.228;22.498;2022-10-17T03:09:27;13.05;;;9.27;;
23148;SDS011;11743;51.228;22.498;2022-10-17T03:09:51;15.00;;;10.25;;
23148;SDS011;11743;51.228;22.498;2022-10-17T03:10:17;15.15;;;10.93;;
23148;SDS011;11743;51.228;22.498;2022-10-17T03:10:40;13.95;;;10.10;;
23148;SDS011;11743;51.228;22.498;2022-10-17T03:11:03;15.75;;;10.20;;
23148;SDS011;11743;51.228;22.498;2022-10-17T03:11:27;13.38;;;9.77;;
23148;SDS011;11743;51.228;22.498;2022-10-17T03:11:49;15.98;;;10.27;;
23148;SDS011;11743;51.228;22.498;2022-10-17T03:12:13;13.90;;;10.13;;
23148;SDS011;11743;51.228;22.498;2022-10-17T03:12:35;15.93;;;10.38;;
23148;SDS011;11743;51.228;22.498;2022-10-17T03:12:57;14.07;;;9.88;;
23148;SDS011;11743;51.228;22.498;2022-10-17T03:13:19;13.77;;;10.13;;
23148;SDS011;11743;51.228;22.498;2022-10-17T03:13:41;14.38;;;10.00;;
23148;SDS011;11743;51.228;22.498;2022-10-17T03:14:08;13.48;;;10.43;;
23148;SDS011;11743;51.228;22.498;2022-10-17T03:14:31;12.40;;;9.70;;
23148;SDS011;11743;51.228;22.498;2022-10-17T03:14:53;14.02;;;9.57;;
23148;SDS011;11743;51.228;22.498;2022-10-17T03:15:18;14.70;;;10.20;;
23148;SDS011;11743;51.228;22.498;2022-10-17T03:15:40;13.98;;;10.18;;
23148;SDS011;11743;51.228;22.498;2022-10-17T03:16:03;16.88;;;10.38;;
23148;SDS011;11743;51.228;22.498;2022-10-17T03:16:29;16.15;;;10.77;;
23148;SDS011;11743;51.228;22.498;2022-10-17T03:16:51;14.40;;;10.38;;
23148;SDS011;11743;51.228;22.498;2022-10-17T03:17:13;15.63;;;10.38;;
23148;SDS011;11743;51.228;22.498;2022-10-17T03:17:35;14.45;;;10.60;;
23148;SDS011;11743;51.228;22.498;2022-10-17T03:17:57;14.93;;;9.98;;
23148;SDS011;11743;51.228;22.498;2022-10-17T03:18:21;13.02;;;10.10;;
23148;SDS011;11743;51.228;22.498;2022-10-17T03:18:44;14.50;;;9.95;;
23148;SDS011;11743;51.228;22.498;2022-10-17T03:19:10;13.38;;;10.15;;
23148;SDS011;11743;51.228;22.498;2022-10-17T03:19:34;13.20;;;10.23;;
23148;SDS011;11743;51.228;22.498;2022-10-17T03:19:56;15.07;;;10.13;;
23148;SDS011;11743;51.228;22.498;2022-10-17T03:20:18;15.90;;;10.02;;
23148;SDS011;11743;51.228;22.498;2022-10-17T03:20:41;14.25;;;10.13;;
23148;SDS011;11743;51.228;22.498;2022-10-17T03:21:04;13.63;;;9.93;;
23148;SDS011;11743;51.228;22.498;2022-10-17T03:21:27;14.38;;;9.95;;
23148;SDS011;11743;51.228;22.498;2022-10-17T03:21:49;14.77;;;10.15;;
23148;SDS011;11743;51.228;22.498;2022-10-17T03:22:16;15.30;;;10.38;;
23148;SDS011;11743;51.228;22.498;2022-10-17T03:22:41;12.15;;;9.88;;
23148;SDS011;11743;51.228;22.498;2022-10-17T03:23:06;13.57;;;9.68;;
23148;SDS011;11743;51.228;22.498;2022-10-17T03:23:28;14.02;;;9.68;;
23148;SDS011;11743;51.228;22.498;2022-10-17T03:23:50;13.30;;;10.07;;
23148;SDS011;11743;51.228;22.498;2022-10-17T03:24:13;14.18;;;9.82;;
23148;SDS011;11743;51.228;22.498;2022-10-17T03:24:36;16.27;;;10.10;;
23148;SDS011;11743;51.228;22.498;2022-10-17T03:25:07;13.88;;;9.88;;
23148;SDS011;11743;51.228;22.498;2022-10-17T03:25:29;15.75;;;10.48;;
23148;SDS011;11743;51.228;22.498;2022-10-17T03:25:52;15.40;;;10.50;;
23148;SDS011;11743;51.228;22.498;2022-10-17T03:26:14;15.00;;;9.93;;
23148;SDS011;11743;51.228;22.498;2022-10-17T03:26:36;14.68;;;10.38;;